Frosinone Military Airport


Codes: LIRH/QFR
Name: Frosinone Military Airport
City: Frosinone
Country: Italy
Elevation: 0 ft.

Photos at Frosinone Military Airport


   Photos courtesy of SpottingLog. You can add your own sightings and photos by signing up for a free trial today.



No photos found.

Weather at Frosinone Military Airport


Time (UTC)DescriptionTempratureWindCloud coverageVisibilityPressureHumidity
16-Jun-2024 12:00Scattered Clouds28°C4 mph, SW35%10000m1013hPa37%
16-Jun-2024 15:00Broken Clouds28°C7 mph, SW51%10000m1012hPa37%
16-Jun-2024 18:00Scattered Clouds23°C4 mph, W34%10000m1014hPa58%
16-Jun-2024 21:00Few Clouds18°C2 mph, N22%10000m1016hPa73%
17-Jun-2024 00:00Few Clouds17°C4 mph, N20%10000m1016hPa71%
17-Jun-2024 03:00Clear Sky16°C2 mph, NE3%10000m1016hPa66%
17-Jun-2024 06:00Few Clouds22°C0 mph, SE15%10000m1017hPa51%
17-Jun-2024 09:00Scattered Clouds28°C4 mph, S37%10000m1017hPa34%
17-Jun-2024 12:00Scattered Clouds31°C4 mph, S27%10000m1016hPa26%
17-Jun-2024 15:00Clear Sky31°C4 mph, S1%10000m1016hPa27%
17-Jun-2024 18:00Clear Sky25°C2 mph, W0%10000m1016hPa56%
17-Jun-2024 21:00Clear Sky21°C4 mph, W0%10000m1018hPa59%
18-Jun-2024 00:00Clear Sky20°C2 mph, NE0%10000m1018hPa61%
18-Jun-2024 03:00Clear Sky19°C4 mph, NE0%10000m1018hPa63%
18-Jun-2024 06:00Clear Sky25°C0 mph, NE0%10000m1019hPa49%
18-Jun-2024 09:00Clear Sky31°C2 mph, SE0%10000m1018hPa33%
18-Jun-2024 12:00Clear Sky35°C4 mph, S0%10000m1018hPa23%
18-Jun-2024 15:00Clear Sky34°C7 mph, SW0%10000m1017hPa28%
18-Jun-2024 18:00Clear Sky27°C2 mph, SW0%10000m1017hPa48%
18-Jun-2024 21:00Clear Sky24°C4 mph, N3%10000m1019hPa51%
19-Jun-2024 00:00Clear Sky23°C4 mph, NE3%10000m1018hPa50%
19-Jun-2024 03:00Clear Sky22°C4 mph, N0%10000m1018hPa51%
19-Jun-2024 06:00Scattered Clouds28°C0 mph, NW27%10000m1018hPa41%
19-Jun-2024 09:00Scattered Clouds34°C2 mph, SW35%10000m1018hPa25%
19-Jun-2024 12:00Broken Clouds37°C4 mph, SW68%10000m1017hPa20%
19-Jun-2024 15:00Few Clouds36°C7 mph, W15%10000m1017hPa21%
19-Jun-2024 18:00Scattered Clouds29°C2 mph, NW26%10000m1017hPa39%
19-Jun-2024 21:00Broken Clouds26°C4 mph, NE61%10000m1018hPa41%
20-Jun-2024 00:00Broken Clouds24°C4 mph, N55%10000m1018hPa44%
20-Jun-2024 03:00Clear Sky23°C4 mph, NE4%10000m1017hPa45%
20-Jun-2024 06:00Few Clouds29°C2 mph, NE11%10000m1018hPa38%
20-Jun-2024 09:00Overcast Clouds36°C2 mph, NE92%10000m1017hPa24%
20-Jun-2024 12:00Scattered Clouds40°C4 mph, S50%10000m1016hPa17%
20-Jun-2024 15:00Broken Clouds38°C7 mph, W81%10000m1016hPa22%
20-Jun-2024 18:00Broken Clouds32°C2 mph, S59%10000m1016hPa40%
20-Jun-2024 21:00Clear Sky27°C4 mph, S0%10000m1018hPa48%
21-Jun-2024 00:00Clear Sky26°C4 mph, NE0%10000m1017hPa53%
21-Jun-2024 03:00Clear Sky25°C4 mph, NE0%10000m1017hPa54%
21-Jun-2024 06:00Clear Sky30°C0 mph, NW0%10000m1017hPa42%
21-Jun-2024 09:00Clear Sky36°C4 mph, SW0%10000m1016hPa27%